Wetterdaten: Woche 12.11.18 - 18.11.18 (KW46)
Datum Zeit Temperatur Luftfeuchte Luftdruck Niederschlag Windrichtung Sonnenschein Solar Wind
12.11.2018 00:00 5,4 C 96 % 1016,4 hPa 0,0 l/m N 0,00 h 0 W/m 0,0 km/h (0 Bft)
12.11.2018 01:00 4,6 C 96 % 1016,4 hPa 0,0 l/m N 0,00 h 0 W/m 0,7 km/h (0 Bft)
12.11.2018 02:00 3,8 C 96 % 1016,4 hPa 0,0 l/m N 0,00 h 0 W/m 0,0 km/h (0 Bft)
12.11.2018 03:00 3,5 C 96 % 1016,1 hPa 0,0 l/m N 0,00 h 0 W/m 0,0 km/h (0 Bft)
12.11.2018 04:00 3,3 C 97 % 1015,9 hPa 0,0 l/m W-SW 0,00 h 0 W/m 0,8 km/h (0 Bft)
12.11.2018 05:00 3,2 C 97 % 1016,2 hPa 0,0 l/m N 0,00 h 0 W/m 0,0 km/h (0 Bft)
12.11.2018 06:00 2,4 C 97 % 1016,4 hPa 0,0 l/m N 0,00 h 0 W/m 0,3 km/h (0 Bft)
12.11.2018 07:00 2,0 C 97 % 1016,4 hPa 0,0 l/m N 0,08 h 16 W/m 0,0 km/h (0 Bft)
12.11.2018 08:00 2,5 C 98 % 1016,6 hPa 0,0 l/m W-SW 0,92 h 112 W/m 0,9 km/h (0 Bft)
12.11.2018 09:00 5,2 C 99 % 1016,8 hPa 0,2 l/m W-SW 0,92 h 227 W/m 3,5 km/h (1 Bft)
12.11.2018 10:00 8,1 C 96 % 1017,0 hPa 0,0 l/m W-SW 0,50 h 223 W/m 2,8 km/h (1 Bft)
12.11.2018 11:00 10,1 C 93 % 1017,5 hPa 0,0 l/m W 0,67 h 309 W/m 6,0 km/h (2 Bft)
12.11.2018 12:00 12,7 C 89 % 1017,4 hPa 0,0 l/m N-NW 0,50 h 333 W/m 4,3 km/h (1 Bft)
12.11.2018 13:00 16,1 C 73 % 1017,5 hPa 0,0 l/m NW 0,92 h 383 W/m 3,2 km/h (1 Bft)
12.11.2018 14:00 15,9 C 71 % 1017,5 hPa 0,0 l/m W-NW 0,08 h 131 W/m 2,0 km/h (1 Bft)
12.11.2018 15:00 14,9 C 81 % 1017,9 hPa 0,0 l/m W-NW 0,25 h 100 W/m 2,7 km/h (1 Bft)
12.11.2018 16:00 13,3 C 83 % 1018,4 hPa 0,0 l/m W 0,08 h 20 W/m 3,6 km/h (1 Bft)
12.11.2018 17:00 11,9 C 85 % 1019,0 hPa 0,0 l/m W 0,00 h 0 W/m 2,5 km/h (1 Bft)
12.11.2018 18:00 10,6 C 85 % 1019,7 hPa 0,0 l/m N 0,00 h 0 W/m 0,0 km/h (0 Bft)
12.11.2018 19:00 8,9 C 87 % 1020,1 hPa 0,0 l/m N 0,00 h 0 W/m 0,0 km/h (0 Bft)
12.11.2018 20:00 7,6 C 90 % 1020,6 hPa 0,0 l/m N 0,00 h 0 W/m 0,0 km/h (0 Bft)
12.11.2018 21:00 6,9 C 92 % 1020,6 hPa 0,0 l/m N 0,00 h 0 W/m 0,0 km/h (0 Bft)
12.11.2018 22:00 6,3 C 92 % 1020,5 hPa 0,0 l/m N 0,00 h 0 W/m 0,0 km/h (0 Bft)
12.11.2018 23:00 5,7 C 93 % 1020,4 hPa 0,0 l/m N 0,00 h 0 W/m 0,0 km/h (0 Bft)
13.11.2018 00:00 5,6 C 94 % 1020,4 hPa 0,0 l/m N 0,00 h 0 W/m 0,0 km/h (0 Bft)
13.11.2018 01:00 5,5 C 95 % 1020,3 hPa 0,0 l/m N 0,00 h 0 W/m 0,0 km/h (0 Bft)
13.11.2018 02:00 5,1 C 95 % 1020,5 hPa 0,0 l/m N 0,00 h 0 W/m 0,1 km/h (0 Bft)
13.11.2018 03:00 4,8 C 96 % 1020,7 hPa 0,0 l/m N 0,00 h 0 W/m 0,0 km/h (0 Bft)
13.11.2018 04:00 4,3 C 96 % 1021,5 hPa 0,0 l/m N 0,00 h 0 W/m 0,0 km/h (0 Bft)
13.11.2018 05:00 4,0 C 96 % 1022,3 hPa 0,0 l/m N 0,00 h 0 W/m 0,0 km/h (0 Bft)
13.11.2018 06:00 3,7 C 96 % 1022,7 hPa 0,0 l/m N 0,00 h 0 W/m 0,0 km/h (0 Bft)
13.11.2018 07:00 3,8 C 97 % 1023,6 hPa 0,0 l/m N 0,00 h 9 W/m 0,0 km/h (0 Bft)
13.11.2018 08:00 4,7 C 98 % 1024,6 hPa 0,0 l/m N 0,00 h 16 W/m 0,3 km/h (0 Bft)
13.11.2018 09:00 6,2 C 98 % 1025,8 hPa 0,0 l/m NW 0,00 h 15 W/m 7,1 km/h (2 Bft)
13.11.2018 10:00 7,8 C 99 % 1027,0 hPa 0,0 l/m NW 0,00 h 38 W/m 10,9 km/h (2 Bft)
13.11.2018 11:00 8,7 C 97 % 1027,6 hPa 0,2 l/m W 0,00 h 44 W/m 11,8 km/h (2 Bft)
13.11.2018 12:00 8,8 C 96 % 1027,4 hPa 0,4 l/m SW 0,00 h 79 W/m 12,2 km/h (2 Bft)
13.11.2018 13:00 8,6 C 97 % 1027,7 hPa 0,2 l/m SW 0,00 h 43 W/m 14,6 km/h (3 Bft)
13.11.2018 14:00 8,7 C 97 % 1027,9 hPa 0,0 l/m SW 0,00 h 45 W/m 12,1 km/h (2 Bft)
13.11.2018 15:00 9,0 C 98 % 1028,6 hPa 0,0 l/m W-SW 0,00 h 37 W/m 9,0 km/h (2 Bft)
13.11.2018 16:00 9,0 C 97 % 1029,3 hPa 0,0 l/m N 0,33 h 22 W/m 0,0 km/h (0 Bft)
13.11.2018 17:00 8,1 C 97 % 1030,0 hPa 0,0 l/m W-SW 0,00 h 0 W/m 0,3 km/h (0 Bft)
13.11.2018 18:00 7,0 C 97 % 1030,3 hPa 0,0 l/m W-SW 0,00 h 0 W/m 2,4 km/h (1 Bft)
13.11.2018 19:00 5,8 C 96 % 1030,7 hPa 0,0 l/m N 0,00 h 0 W/m 0,0 km/h (0 Bft)
13.11.2018 20:00 4,7 C 96 % 1030,5 hPa 0,2 l/m N 0,00 h 0 W/m 0,0 km/h (0 Bft)
13.11.2018 21:00 3,7 C 96 % 1030,7 hPa 0,0 l/m N 0,00 h 0 W/m 0,0 km/h (0 Bft)
13.11.2018 22:00 2,8 C 96 % 1030,9 hPa 0,0 l/m N 0,00 h 0 W/m 0,0 km/h (0 Bft)
13.11.2018 23:00 2,7 C 97 % 1031,0 hPa 0,0 l/m N 0,00 h 0 W/m 0,0 km/h (0 Bft)
14.11.2018 00:00 3,2 C 97 % 1030,8 hPa 0,0 l/m N 0,00 h 0 W/m 0,0 km/h (0 Bft)
14.11.2018 01:00 3,3 C 98 % 1030,5 hPa 0,0 l/m N 0,00 h 0 W/m 0,0 km/h (0 Bft)
14.11.2018 02:00 3,1 C 98 % 1030,5 hPa 0,0 l/m N 0,00 h 0 W/m 0,1 km/h (0 Bft)
14.11.2018 03:00 3,2 C 98 % 1030,1 hPa 0,2 l/m W-SW 0,00 h 0 W/m 1,1 km/h (0 Bft)
14.11.2018 04:00 3,1 C 98 % 1030,1 hPa 0,0 l/m W-SW 0,00 h 0 W/m 1,7 km/h (1 Bft)
14.11.2018 05:00 2,8 C 98 % 1030,1 hPa 0,0 l/m N 0,00 h 0 W/m 0,8 km/h (0 Bft)
14.11.2018 06:00 2,5 C 98 % 1029,7 hPa 0,0 l/m N 0,00 h 0 W/m 0,0 km/h (0 Bft)
14.11.2018 07:00 2,5 C 98 % 1029,8 hPa 0,0 l/m W-SW 0,17 h 16 W/m 2,9 km/h (1 Bft)
14.11.2018 08:00 3,0 C 99 % 1029,7 hPa 0,0 l/m W-SW 0,00 h 43 W/m 5,3 km/h (1 Bft)
14.11.2018 09:00 4,2 C 99 % 1029,1 hPa 0,0 l/m W-SW 0,00 h 84 W/m 2,9 km/h (1 Bft)
14.11.2018 10:00 5,0 C 99 % 1029,0 hPa 0,0 l/m W-SW 0,08 h 146 W/m 4,7 km/h (1 Bft)
14.11.2018 11:00 5,7 C 99 % 1028,7 hPa 0,0 l/m W-SW 0,00 h 149 W/m 6,0 km/h (2 Bft)
14.11.2018 12:00 5,9 C 99 % 1028,1 hPa 0,0 l/m W-SW 0,00 h 131 W/m 5,0 km/h (1 Bft)
14.11.2018 13:00 6,3 C 100 % 1027,7 hPa 0,0 l/m W-NW 0,00 h 106 W/m 9,0 km/h (2 Bft)
14.11.2018 14:00 6,5 C 99 % 1027,5 hPa 0,0 l/m N-NW 0,00 h 77 W/m 4,8 km/h (1 Bft)
14.11.2018 15:00 6,6 C 99 % 1027,6 hPa 0,0 l/m N-NW 0,00 h 39 W/m 4,3 km/h (1 Bft)
14.11.2018 16:00 6,5 C 99 % 1027,5 hPa 0,0 l/m N-NW 0,00 h 12 W/m 4,9 km/h (1 Bft)
14.11.2018 17:00 6,3 C 99 % 1027,7 hPa 0,0 l/m N-NW 0,00 h 0 W/m 3,2 km/h (1 Bft)
14.11.2018 18:00 6,2 C 99 % 1027,5 hPa 0,0 l/m N 0,00 h 0 W/m 0,4 km/h (0 Bft)
14.11.2018 19:00 6,2 C 99 % 1027,6 hPa 0,0 l/m N-NW 0,00 h 0 W/m 0,9 km/h (0 Bft)
14.11.2018 20:00 6,0 C 99 % 1027,7 hPa 0,0 l/m N-NW 0,00 h 0 W/m 0,9 km/h (0 Bft)
14.11.2018 21:00 5,7 C 99 % 1027,5 hPa 0,0 l/m N-NW 0,00 h 0 W/m 2,0 km/h (1 Bft)
14.11.2018 22:00 5,3 C 99 % 1027,3 hPa 0,0 l/m N 0,00 h 0 W/m 3,7 km/h (1 Bft)
14.11.2018 23:00 5,0 C 99 % 1027,1 hPa 0,0 l/m N-NO 0,00 h 0 W/m 2,3 km/h (1 Bft)
15.11.2018 00:00 4,5 C 99 % 1026,7 hPa 0,0 l/m N-NO 0,00 h 0 W/m 3,7 km/h (1 Bft)
15.11.2018 01:00 4,1 C 99 % 1026,5 hPa 0,0 l/m N 0,00 h 0 W/m 0,7 km/h (0 Bft)
15.11.2018 02:00 3,8 C 99 % 1026,3 hPa 0,0 l/m N 0,00 h 0 W/m 0,8 km/h (0 Bft)
15.11.2018 03:00 3,8 C 99 % 1026,1 hPa 0,0 l/m N 0,00 h 0 W/m 0,4 km/h (0 Bft)
15.11.2018 04:00 3,8 C 99 % 1026,2 hPa 0,2 l/m N 0,00 h 0 W/m 0,0 km/h (0 Bft)
15.11.2018 05:00 3,8 C 99 % 1026,2 hPa 0,0 l/m N 0,00 h 0 W/m 0,8 km/h (0 Bft)
15.11.2018 06:00 3,8 C 99 % 1026,3 hPa 0,0 l/m N 0,00 h 0 W/m 0,0 km/h (0 Bft)
15.11.2018 07:00 3,7 C 99 % 1026,2 hPa 0,2 l/m N 0,00 h 6 W/m 0,0 km/h (0 Bft)
15.11.2018 08:00 3,7 C 99 % 1026,4 hPa 0,0 l/m N-NO 0,00 h 23 W/m 0,9 km/h (0 Bft)
15.11.2018 09:00 3,7 C 99 % 1026,4 hPa 0,0 l/m N 0,00 h 63 W/m 0,3 km/h (0 Bft)
15.11.2018 10:00 4,3 C 100 % 1026,3 hPa 0,0 l/m N 0,00 h 90 W/m 0,4 km/h (0 Bft)
15.11.2018 11:00 4,7 C 99 % 1026,1 hPa 0,0 l/m N-NO 0,00 h 80 W/m 0,7 km/h (0 Bft)
15.11.2018 12:00 4,7 C 98 % 1025,8 hPa 0,0 l/m N-NO 0,00 h 81 W/m 1,6 km/h (1 Bft)
15.11.2018 13:00 4,8 C 97 % 1025,4 hPa 0,0 l/m NO 0,00 h 59 W/m 5,9 km/h (2 Bft)
15.11.2018 14:00 4,4 C 97 % 1025,3 hPa 0,0 l/m NO 0,00 h 39 W/m 3,1 km/h (1 Bft)
15.11.2018 15:00 4,2 C 97 % 1025,3 hPa 0,0 l/m NO 0,00 h 17 W/m 3,1 km/h (1 Bft)
15.11.2018 16:00 3,6 C 97 % 1025,3 hPa 0,0 l/m NO 0,00 h 6 W/m 3,9 km/h (1 Bft)
15.11.2018 17:00 3,3 C 98 % 1025,7 hPa 0,0 l/m N 0,00 h 0 W/m 0,0 km/h (0 Bft)
15.11.2018 18:00 4,2 C 98 % 1026,0 hPa 0,0 l/m N 0,00 h 0 W/m 0,0 km/h (0 Bft)
15.11.2018 19:00 4,3 C 98 % 1026,0 hPa 0,0 l/m N 0,00 h 0 W/m 0,0 km/h (0 Bft)
15.11.2018 20:00 4,2 C 98 % 1025,9 hPa 0,0 l/m NO 0,00 h 0 W/m 1,7 km/h (1 Bft)
15.11.2018 21:00 4,0 C 98 % 1025,9 hPa 0,0 l/m NO 0,00 h 0 W/m 3,6 km/h (1 Bft)
15.11.2018 22:00 3,9 C 98 % 1025,9 hPa 0,0 l/m O-NO 0,00 h 0 W/m 1,3 km/h (1 Bft)
15.11.2018 23:00 3,9 C 98 % 1026,0 hPa 0,0 l/m O-NO 0,00 h 0 W/m 2,3 km/h (1 Bft)
16.11.2018 00:00 3,8 C 98 % 1026,3 hPa 0,0 l/m O-NO 0,00 h 0 W/m 7,1 km/h (2 Bft)
16.11.2018 01:00 3,6 C 98 % 1026,2 hPa 0,0 l/m O 0,00 h 0 W/m 7,1 km/h (2 Bft)
16.11.2018 02:00 3,6 C 98 % 1026,1 hPa 0,0 l/m O 0,00 h 0 W/m 5,2 km/h (1 Bft)
16.11.2018 03:00 3,7 C 98 % 1025,9 hPa 0,0 l/m O 0,00 h 0 W/m 5,5 km/h (1 Bft)
16.11.2018 04:00 3,6 C 98 % 1025,8 hPa 0,0 l/m O 0,00 h 0 W/m 6,4 km/h (2 Bft)
16.11.2018 05:00 3,7 C 98 % 1025,6 hPa 0,0 l/m O 0,00 h 0 W/m 7,9 km/h (2 Bft)
16.11.2018 06:00 3,6 C 97 % 1025,7 hPa 0,0 l/m O 0,00 h 0 W/m 9,0 km/h (2 Bft)
16.11.2018 07:00 3,5 C 97 % 1026,0 hPa 0,0 l/m O 0,00 h 6 W/m 8,6 km/h (2 Bft)
16.11.2018 08:00 3,3 C 97 % 1026,6 hPa 0,0 l/m O 0,00 h 19 W/m 11,8 km/h (2 Bft)
16.11.2018 09:00 3,2 C 97 % 1026,7 hPa 0,0 l/m O 0,00 h 47 W/m 13,2 km/h (3 Bft)
16.11.2018 10:00 3,5 C 95 % 1026,8 hPa 0,0 l/m O 0,08 h 131 W/m 14,2 km/h (3 Bft)
16.11.2018 11:00 4,0 C 91 % 1026,6 hPa 0,0 l/m O-NO 0,42 h 280 W/m 15,7 km/h (3 Bft)
16.11.2018 12:00 5,2 C 86 % 1026,2 hPa 0,0 l/m O-NO 0,75 h 314 W/m 18,0 km/h (3 Bft)
16.11.2018 13:00 5,8 C 84 % 1025,8 hPa 0,0 l/m O-NO 0,92 h 348 W/m 14,8 km/h (3 Bft)
16.11.2018 14:00 6,2 C 83 % 1025,3 hPa 0,0 l/m NO 1,00 h 236 W/m 14,1 km/h (3 Bft)
16.11.2018 15:00 5,6 C 84 % 1025,0 hPa 0,0 l/m O-NO 1,00 h 111 W/m 14,2 km/h (3 Bft)
16.11.2018 16:00 4,6 C 84 % 1025,3 hPa 0,0 l/m O-NO 0,17 h 18 W/m 14,0 km/h (3 Bft)
16.11.2018 17:00 3,5 C 87 % 1025,4 hPa 0,0 l/m O-NO 0,00 h 0 W/m 15,4 km/h (3 Bft)
16.11.2018 18:00 2,8 C 90 % 1025,6 hPa 0,0 l/m O-NO 0,00 h 0 W/m 14,6 km/h (3 Bft)
16.11.2018 19:00 2,6 C 91 % 1025,7 hPa 0,0 l/m O-NO 0,00 h 0 W/m 11,3 km/h (2 Bft)
16.11.2018 20:00 2,0 C 92 % 1025,5 hPa 0,0 l/m O-NO 0,00 h 0 W/m 10,2 km/h (2 Bft)
16.11.2018 21:00 1,4 C 93 % 1025,2 hPa 0,0 l/m N-NO 0,00 h 0 W/m 11,1 km/h (2 Bft)
16.11.2018 22:00 1,8 C 95 % 1025,0 hPa 0,0 l/m NO 0,00 h 0 W/m 11,4 km/h (2 Bft)
16.11.2018 23:00 2,1 C 95 % 1024,8 hPa 0,0 l/m O-NO 0,00 h 0 W/m 14,5 km/h (3 Bft)
17.11.2018 00:00 2,1 C 94 % 1024,6 hPa 0,0 l/m O-NO 0,00 h 0 W/m 13,3 km/h (3 Bft)
17.11.2018 01:00 2,2 C 94 % 1024,6 hPa 0,0 l/m O-NO 0,00 h 0 W/m 14,4 km/h (3 Bft)
17.11.2018 02:00 2,0 C 92 % 1024,5 hPa 0,0 l/m O-NO 0,00 h 0 W/m 17,2 km/h (3 Bft)
17.11.2018 03:00 1,7 C 91 % 1024,8 hPa 0,0 l/m O-NO 0,00 h 0 W/m 17,8 km/h (3 Bft)
17.11.2018 04:00 1,4 C 90 % 1024,6 hPa 0,0 l/m O 0,00 h 0 W/m 17,6 km/h (3 Bft)
17.11.2018 05:00 1,3 C 90 % 1024,2 hPa 0,0 l/m O-NO 0,00 h 0 W/m 16,8 km/h (3 Bft)
17.11.2018 06:00 1,3 C 90 % 1024,2 hPa 0,0 l/m O-NO 0,00 h 0 W/m 16,8 km/h (3 Bft)
17.11.2018 07:00 1,4 C 89 % 1024,4 hPa 0,0 l/m O-NO 0,00 h 7 W/m 18,9 km/h (3 Bft)
17.11.2018 08:00 1,6 C 89 % 1024,8 hPa 0,0 l/m O 0,00 h 33 W/m 15,6 km/h (3 Bft)
17.11.2018 09:00 2,2 C 88 % 1024,9 hPa 0,0 l/m O 0,58 h 128 W/m 14,5 km/h (3 Bft)
17.11.2018 10:00 2,8 C 85 % 1025,0 hPa 0,0 l/m O 0,92 h 307 W/m 16,2 km/h (3 Bft)
17.11.2018 11:00 4,3 C 81 % 1024,6 hPa 0,0 l/m O-NO 1,00 h 378 W/m 19,3 km/h (3 Bft)
17.11.2018 12:00 5,4 C 77 % 1024,3 hPa 0,0 l/m NO 1,00 h 381 W/m 20,2 km/h (4 Bft)
17.11.2018 13:00 6,5 C 73 % 1024,1 hPa 0,0 l/m O-NO 1,00 h 341 W/m 19,7 km/h (3 Bft)
17.11.2018 14:00 7,1 C 70 % 1023,8 hPa 0,0 l/m O-NO 1,00 h 246 W/m 21,4 km/h (4 Bft)
17.11.2018 15:00 6,9 C 69 % 1023,7 hPa 0,0 l/m NO 0,92 h 110 W/m 20,1 km/h (4 Bft)
17.11.2018 16:00 6,0 C 70 % 1023,6 hPa 0,0 l/m O 0,08 h 15 W/m 19,7 km/h (3 Bft)
17.11.2018 17:00 5,0 C 70 % 1023,8 hPa 0,0 l/m O-NO 0,00 h 0 W/m 27,1 km/h (4 Bft)
17.11.2018 18:00 4,3 C 69 % 1024,0 hPa 0,0 l/m O 0,00 h 0 W/m 24,7 km/h (4 Bft)
17.11.2018 19:00 3,5 C 71 % 1023,8 hPa 0,0 l/m NO 0,00 h 0 W/m 24,8 km/h (4 Bft)
17.11.2018 20:00 2,9 C 70 % 1024,0 hPa 0,0 l/m O-NO 0,00 h 0 W/m 18,0 km/h (3 Bft)
17.11.2018 21:00 2,0 C 78 % 1023,7 hPa 0,0 l/m O-NO 0,00 h 0 W/m 18,5 km/h (3 Bft)
17.11.2018 22:00 1,3 C 82 % 1023,5 hPa 0,0 l/m O-NO 0,00 h 0 W/m 17,7 km/h (3 Bft)
17.11.2018 23:00 0,8 C 81 % 1023,3 hPa 0,0 l/m O-NO 0,00 h 0 W/m 19,4 km/h (3 Bft)
18.11.2018 00:00 0,4 C 82 % 1023,4 hPa 0,0 l/m O-NO 0,00 h 0 W/m 18,8 km/h (3 Bft)
18.11.2018 01:00 -0,0 C 83 % 1023,4 hPa 0,0 l/m O-NO 0,00 h 0 W/m 16,5 km/h (3 Bft)
18.11.2018 02:00 -0,2 C 84 % 1023,2 hPa 0,0 l/m NO 0,00 h 0 W/m 16,2 km/h (3 Bft)
18.11.2018 03:00 -0,7 C 86 % 1022,9 hPa 0,0 l/m NO 0,00 h 0 W/m 8,9 km/h (2 Bft)
18.11.2018 04:00 -1,2 C 88 % 1022,5 hPa 0,0 l/m NO 0,00 h 0 W/m 11,7 km/h (2 Bft)
18.11.2018 05:00 -1,4 C 89 % 1022,1 hPa 0,0 l/m NO 0,00 h 0 W/m 16,6 km/h (3 Bft)
18.11.2018 06:00 -1,4 C 90 % 1022,0 hPa 0,0 l/m NO 0,00 h 0 W/m 16,9 km/h (3 Bft)
18.11.2018 07:00 -1,4 C 89 % 1022,3 hPa 0,0 l/m O-NO 0,00 h 8 W/m 16,1 km/h (3 Bft)
18.11.2018 08:00 -1,3 C 89 % 1022,5 hPa 0,0 l/m NO 0,00 h 44 W/m 15,0 km/h (3 Bft)
18.11.2018 09:00 -0,9 C 89 % 1022,3 hPa 0,0 l/m NO 0,00 h 82 W/m 11,7 km/h (2 Bft)
18.11.2018 10:00 -0,0 C 86 % 1022,1 hPa 0,0 l/m O-NO 0,17 h 177 W/m 15,8 km/h (3 Bft)
18.11.2018 11:00 1,7 C 81 % 1021,4 hPa 0,0 l/m NO 1,00 h 385 W/m 13,6 km/h (3 Bft)
18.11.2018 12:00 3,5 C 74 % 1020,5 hPa 0,0 l/m O-NO 1,00 h 386 W/m 12,8 km/h (3 Bft)
18.11.2018 13:00 4,5 C 69 % 1020,2 hPa 0,0 l/m O-NO 1,00 h 337 W/m 18,0 km/h (3 Bft)
18.11.2018 14:00 4,7 C 70 % 1019,8 hPa 0,0 l/m O-NO 1,00 h 244 W/m 17,6 km/h (3 Bft)
18.11.2018 15:00 4,2 C 73 % 1019,4 hPa 0,0 l/m O-NO 0,83 h 104 W/m 11,8 km/h (2 Bft)
18.11.2018 16:00 3,4 C 75 % 1018,9 hPa 0,0 l/m O-NO 0,08 h 16 W/m 7,1 km/h (2 Bft)
18.11.2018 17:00 2,2 C 79 % 1018,4 hPa 0,0 l/m NO 0,00 h 0 W/m 3,3 km/h (1 Bft)
18.11.2018 18:00 1,2 C 83 % 1017,8 hPa 0,0 l/m NO 0,00 h 0 W/m 3,1 km/h (1 Bft)
18.11.2018 19:00 1,4 C 83 % 1017,9 hPa 0,0 l/m NO 0,00 h 0 W/m 4,8 km/h (1 Bft)
18.11.2018 20:00 1,6 C 82 % 1017,4 hPa 0,0 l/m N 0,00 h 0 W/m 2,4 km/h (1 Bft)
18.11.2018 21:00 1,4 C 82 % 1017,2 hPa 0,0 l/m NO 0,00 h 0 W/m 7,0 km/h (2 Bft)
18.11.2018 22:00 1,0 C 83 % 1016,7 hPa 0,0 l/m NO 0,00 h 0 W/m 8,4 km/h (2 Bft)
18.11.2018 23:00 1,0 C 84 % 1016,2 hPa 0,0 l/m O-NO 0,00 h 0 W/m 9,9 km/h (2 Bft)
Min-Datum _ 18.11.18 12.11.18 12.11.18 - - - - 12.11.18
_ Min-Zeit 05:20 14:10 04:10 - - - - 00:00
Minimum _ -1,4 C 66 % 1015,7 hPa - - - - 0,0 km/h (0 Bft)
Max-Datum _ 12.11.18 14.11.18 13.11.18 13.11.18 - 12.11.18 12.11.18 17.11.18
_ Max-Zeit 13:45 11:35 23:55 12:00 - 07:35 11:45 18:35
Maximum _ 16,7 C 100 % 1031,1 hPa 0,4 l/m - 0,08 h 610 W/m 35,4 km/h
O-NO (5 Bft)
Durchschnitt _ 4,3 C 91 % 1024,2 hPa #1,8 l/m O-NO #21:25 h 124 W/m 7,3 km/h (2 Bft)